Time;durP1;ratioP1;P1;durP2;ratioP2;P2;SDS_P1;SDS_P2;PMS_P1;PMS_P2;Temp;Humidity;BMP_temperature;BMP_pressure;BME280_temperature;BME280_humidity;BME280_pressure;Samples;Min_cycle;Max_cycle;Signal;HPM_P1;HPM_P2
2022/07/03 00:02:11;;;;;;;3.40;2.22;;;;;;;22.46;96.37;100020.41;1683492;83;21072;-79
2022/07/03 00:04:37;;;;;;;4.25;2.02;;;;;;;22.54;94.47;100017.84;1684198;83;21427;-78
2022/07/03 00:07:05;;;;;;;11.15;2.30;;;;;;;22.58;94.10;100009.45;1684229;83;21149;-77
2022/07/03 00:09:31;;;;;;;3.83;2.15;;;;;;;22.72;93.20;100010.97;1684057;85;21054;-76
2022/07/03 00:12:03;;;;;;;6.75;2.33;;;;;;;22.70;93.00;100005.55;1684136;85;21016;-77
2022/07/03 00:14:32;;;;;;;3.35;2.33;;;;;;;22.73;92.23;100003.35;1683929;83;21030;-77
2022/07/03 00:16:58;;;;;;;4.45;2.22;;;;;;;22.66;91.52;99992.08;1684508;85;20953;-75
2022/07/03 00:19:26;;;;;;;8.13;2.22;;;;;;;22.68;91.54;99992.49;1684495;83;21283;-79
2022/07/03 00:21:56;;;;;;;2.62;2.15;;;;;;;22.66;91.49;99992.89;1684073;84;21005;-79
2022/07/03 00:24:30;;;;;;;7.97;2.25;;;;;;;22.74;92.31;99996.53;1683469;85;21903;-77
2022/07/03 00:26:57;;;;;;;2.95;1.98;;;;;;;22.81;91.54;99997.20;1683630;84;20941;-75
2022/07/03 00:29:23;;;;;;;3.17;2.00;;;;;;;22.87;92.79;99992.80;1683747;84;21013;-78
2022/07/03 00:31:52;;;;;;;5.10;2.37;;;;;;;22.66;91.89;99989.27;1684190;85;21090;-78
2022/07/03 00:34:20;;;;;;;6.83;2.65;;;;;;;22.44;94.60;99983.48;1684182;85;21115;-76
2022/07/03 00:36:49;;;;;;;8.25;2.55;;;;;;;22.36;96.26;99989.67;1664968;85;21004;-78
2022/07/03 00:39:15;;;;;;;7.47;2.70;;;;;;;22.42;96.48;99984.47;1684203;85;21461;-77
2022/07/03 00:41:45;;;;;;;3.35;1.65;;;;;;;22.42;95.99;99985.87;1692594;84;21508;-78
2022/07/03 00:44:11;;;;;;;2.85;1.80;;;;;;;22.51;94.17;99977.93;1696238;84;21237;-78
2022/07/03 00:46:43;;;;;;;5.08;2.27;;;;;;;22.36;94.15;99977.85;1691388;84;20959;-78
2022/07/03 00:49:13;;;;;;;4.60;1.90;;;;;;;22.38;93.78;99975.44;1629886;87;21005;-77
2022/07/03 00:51:42;;;;;;;4.87;2.27;;;;;;;22.47;93.41;99970.08;1649946;86;21436;-76
2022/07/03 00:54:11;;;;;;;3.65;1.80;;;;;;;22.57;92.45;99972.14;1684733;85;20972;-75
2022/07/03 00:56:39;;;;;;;3.17;2.10;;;;;;;22.69;93.14;99981.48;1683014;84;21608;-78
2022/07/03 00:59:09;;;;;;;6.95;2.70;;;;;;;22.49;93.49;99977.52;1682460;83;21009;-76
2022/07/03 01:01:37;;;;;;;2.50;1.90;;;;;;;22.44;92.46;99975.07;1675241;84;21518;-77
2022/07/03 01:04:53;;;;;;;4.85;2.20;;;;;;;22.32;92.77;99976.19;1683887;84;21003;-79
2022/07/03 01:07:43;;;;;;;7.20;2.25;;;;;;;22.18;95.05;99973.49;1684246;85;21620;-78
2022/07/03 01:10:21;;;;;;;3.35;2.22;;;;;;;22.27;95.69;99977.38;1683740;84;21552;-80
2022/07/03 01:13:05;;;;;;;3.20;1.72;;;;;;;22.42;95.12;99974.06;1656350;86;20988;-78
2022/07/03 01:16:01;;;;;;;6.12;1.90;;;;;;;22.32;96.14;99974.20;1673401;84;21074;-77
2022/07/03 01:18:49;;;;;;;3.70;2.30;;;;;;;22.08;97.13;99976.42;1579108;90;21029;-77
2022/07/03 01:21:36;;;;;;;3.70;2.33;;;;;;;22.29;95.96;99972.77;1659060;84;21410;-79
2022/07/03 01:24:28;;;;;;;4.25;2.15;;;;;;;22.09;97.42;99978.64;1622775;88;21222;-78
2022/07/03 01:26:59;;;;;;;5.45;2.62;;;;;;;22.05;97.71;99977.20;1655397;86;20932;-77
2022/07/03 01:29:40;;;;;;;3.25;1.92;;;;;;;22.00;98.12;99967.75;1622989;88;20983;-77
2022/07/03 01:32:07;;;;;;;6.25;2.33;;;;;;;22.03;98.68;99967.55;1675243;84;21426;-76
2022/07/03 01:34:35;;;;;;;4.87;2.62;;;;;;;22.00;98.60;99968.56;1684145;85;21013;-76
2022/07/03 01:37:03;;;;;;;6.80;3.22;;;;;;;21.96;98.96;99965.50;1684245;85;21572;-76
2022/07/03 01:39:29;;;;;;;6.75;2.62;;;;;;;21.88;99.45;99961.84;1684136;85;20926;-77
2022/07/03 01:41:56;;;;;;;4.08;2.37;;;;;;;21.88;100.00;99966.86;1683869;84;21014;-76
2022/07/03 01:44:24;;;;;;;5.62;2.20;;;;;;;21.92;100.00;99964.06;1664785;85;21002;-77
2022/07/03 01:46:53;;;;;;;4.47;2.65;;;;;;;21.94;100.00;99962.30;1684295;85;20917;-78
2022/07/03 01:49:22;;;;;;;3.42;2.25;;;;;;;21.89;100.00;99964.25;1683829;84;21580;-79
2022/07/03 01:51:49;;;;;;;3.52;2.40;;;;;;;22.00;99.37;99966.34;1681663;84;21433;-78
2022/07/03 01:54:16;;;;;;;4.95;2.33;;;;;;;21.82;100.00;99966.98;1688097;85;20917;-78
2022/07/03 01:56:44;;;;;;;9.18;2.87;;;;;;;21.91;99.19;99963.05;1684324;85;21548;-76
2022/07/03 01:59:11;;;;;;;6.55;2.10;;;;;;;21.99;98.63;99964.75;1632253;87;21038;-78
2022/07/03 02:02:02;;;;;;;4.03;2.15;;;;;;;21.91;97.46;99963.86;1684351;84;21121;-77
2022/07/03 02:04:39;;;;;;;4.12;2.37;;;;;;;21.99;96.60;99962.73;1684040;85;21453;-77
2022/07/03 02:07:14;;;;;;;5.97;2.62;;;;;;;21.92;97.00;99964.68;1684355;85;21533;-77
2022/07/03 02:10:04;;;;;;;4.10;2.05;;;;;;;21.87;97.67;99963.05;1664347;85;21049;-78
2022/07/03 02:12:40;;;;;;;5.80;2.10;;;;;;;21.78;98.77;99961.93;1680213;84;21147;-78
2022/07/03 02:15:09;;;;;;;4.08;2.20;;;;;;;21.66;98.99;99961.62;1686915;85;21135;-78
2022/07/03 02:17:38;;;;;;;7.40;2.50;;;;;;;21.65;98.98;99959.98;1686963;84;21080;-77
2022/07/03 02:20:08;;;;;;;7.40;2.52;;;;;;;21.69;97.04;99956.64;1687481;85;20969;-78
2022/07/03 02:22:41;;;;;;;6.60;2.30;;;;;;;21.76;96.15;99959.52;1659263;85;21042;-78
2022/07/03 02:25:11;;;;;;;5.40;2.70;;;;;;;21.97;95.62;99961.52;1688051;85;20936;-77
2022/07/03 02:27:57;;;;;;;6.12;2.17;;;;;;;22.03;97.73;99966.97;1686981;84;21252;-79
2022/07/03 02:30:13;;;;;;;3.95;2.12;;;;;;;21.95;96.57;99968.92;1650115;86;21028;-78
2022/07/03 02:32:50;;;;;;;10.43;2.50;;;;;;;21.84;98.83;99966.59;1686676;84;21530;-79
2022/07/03 02:35:31;;;;;;;6.45;2.67;;;;;;;21.63;100.00;99968.78;1687419;85;21422;-78
2022/07/03 02:38:17;;;;;;;5.53;2.37;;;;;;;21.62;100.00;99975.59;1667296;84;20966;-78
2022/07/03 02:40:57;;;;;;;5.45;2.62;;;;;;;21.64;100.00;99976.02;1687691;85;22235;-78
2022/07/03 02:44:09;;;;;;;7.15;2.72;;;;;;;21.61;100.00;99966.98;1684503;84;21044;-80
2022/07/03 02:47:10;;;;;;;6.47;2.65;;;;;;;21.61;100.00;99961.38;1687528;84;20901;-79
2022/07/03 02:50:13;;;;;;;4.35;2.40;;;;;;;21.64;100.00;99963.41;1687265;85;20965;-78
2022/07/03 02:52:44;;;;;;;5.28;3.02;;;;;;;21.69;100.00;99960.03;1602962;88;21021;-77
2022/07/03 02:55:42;;;;;;;5.08;1.82;;;;;;;21.64;100.00;99962.00;1675886;85;21611;-78
2022/07/03 02:58:29;;;;;;;5.12;2.55;;;;;;;21.62;100.00;99960.77;1687380;84;21005;-77
2022/07/03 03:01:18;;;;;;;3.67;2.22;;;;;;;21.58;100.00;99957.92;1687373;82;20965;-77
2022/07/03 03:03:51;;;;;;;3.27;1.90;;;;;;;21.62;100.00;99962.98;1687521;85;21562;-77
2022/07/03 03:06:21;;;;;;;3.85;2.22;;;;;;;21.67;100.00;99961.81;1687741;84;21015;-79
2022/07/03 03:08:52;;;;;;;5.22;2.25;;;;;;;21.71;100.00;99964.66;1690091;83;22011;-80
2022/07/03 03:11:42;;;;;;;3.62;2.20;;;;;;;21.70;100.00;99967.27;1686744;84;21442;-76
2022/07/03 03:14:13;;;;;;;6.83;2.60;;;;;;;21.72;100.00;99961.47;1678513;84;20972;-80
2022/07/03 03:16:52;;;;;;;6.00;2.08;;;;;;;21.76;100.00;99960.92;1661887;85;21083;-78
2022/07/03 03:19:22;;;;;;;5.50;2.30;;;;;;;21.78;100.00;99954.92;1608998;88;21032;-77
2022/07/03 03:22:29;;;;;;;5.45;2.15;;;;;;;21.88;100.00;99955.64;1609093;88;21281;-76
2022/07/03 03:24:56;;;;;;;3.25;2.17;;;;;;;21.93;100.00;99953.66;1608800;88;21490;-78
2022/07/03 03:27:24;;;;;;;3.30;2.45;;;;;;;21.93;100.00;99960.08;1636093;84;21028;-78
2022/07/03 03:29:51;;;;;;;7.35;2.20;;;;;;;21.96;100.00;99957.90;1662254;84;21039;-76
2022/07/03 03:32:17;;;;;;;5.60;2.20;;;;;;;21.99;100.00;99956.33;1663389;86;20924;-78
2022/07/03 03:34:44;;;;;;;7.70;2.42;;;;;;;22.20;100.00;99957.67;1663480;86;21163;-78
2022/07/03 03:37:12;;;;;;;4.80;2.30;;;;;;;22.32;98.69;99960.17;1662335;84;21015;-76
2022/07/03 03:39:39;;;;;;;3.20;1.70;;;;;;;22.42;98.37;99957.22;1663414;86;20976;-78
2022/07/03 03:42:08;;;;;;;6.40;2.25;;;;;;;22.55;98.11;99959.71;1663517;86;20980;-78
2022/07/03 03:44:36;;;;;;;3.08;1.92;;;;;;;22.64;99.06;99962.20;1643015;86;21107;-78
2022/07/03 03:47:06;;;;;;;6.65;2.05;;;;;;;22.72;97.86;99959.64;1655386;84;22045;-78
2022/07/03 03:49:32;;;;;;;4.37;2.05;;;;;;;22.76;99.92;99958.25;1662779;84;21564;-76
2022/07/03 03:51:59;;;;;;;5.12;2.15;;;;;;;22.75;100.00;99968.67;1629604;86;21027;-78
2022/07/03 03:54:26;;;;;;;2.70;1.65;;;;;;;22.87;100.00;99966.12;1663522;86;20972;-75
2022/07/03 03:56:52;;;;;;;7.37;2.20;;;;;;;23.01;100.00;99966.80;1663354;84;20984;-78
2022/07/03 03:59:20;;;;;;;7.83;2.62;;;;;;;23.12;100.00;99971.63;1639388;85;22232;-78
2022/07/03 04:01:47;;;;;;;3.33;1.80;;;;;;;23.23;100.00;99966.86;1625162;87;21005;-77
2022/07/03 04:04:18;;;;;;;5.08;2.02;;;;;;;23.33;100.00;99965.28;1625295;87;20970;-77
2022/07/03 04:06:44;;;;;;;5.35;2.35;;;;;;;23.47;97.75;99972.98;1591882;88;21079;-76
2022/07/03 04:09:12;;;;;;;3.27;1.70;;;;;;;23.59;99.28;99966.95;1618767;86;21088;-75
2022/07/03 04:11:41;;;;;;;3.15;1.92;;;;;;;23.67;96.60;99972.59;1612764;87;21315;-78
2022/07/03 04:14:10;;;;;;;5.28;2.65;;;;;;;23.81;95.48;99967.59;1639112;84;21001;-75
2022/07/03 04:16:38;;;;;;;2.87;1.70;;;;;;;23.97;93.00;99957.34;1678211;84;21057;-76
2022/07/03 04:19:05;;;;;;;3.33;2.08;;;;;;;24.12;89.61;99960.16;1678707;85;21426;-75
2022/07/03 04:21:31;;;;;;;4.42;2.00;;;;;;;24.18;87.28;99957.97;1680540;85;21528;-78
2022/07/03 04:24:00;;;;;;;3.10;2.02;;;;;;;24.29;88.35;99955.13;1680218;85;21153;-76
2022/07/03 04:26:26;;;;;;;7.40;1.90;;;;;;;24.48;88.48;99952.30;1680123;85;20971;-77
2022/07/03 04:28:56;;;;;;;3.15;1.95;;;;;;;24.62;84.49;99954.25;1673909;85;21090;-78
2022/07/03 04:31:22;;;;;;;10.35;1.85;;;;;;;24.63;82.95;99946.83;1677160;85;21568;-76
2022/07/03 04:33:49;;;;;;;5.08;2.62;;;;;;;24.69;81.37;99945.78;1677079;85;21525;-75
2022/07/03 04:36:18;;;;;;;10.10;3.77;;;;;;;24.83;81.19;99946.34;1656263;85;20941;-77
2022/07/03 04:38:48;;;;;;;4.17;2.25;;;;;;;24.98;78.21;99947.71;1677037;85;21079;-78
2022/07/03 04:41:15;;;;;;;4.47;2.30;;;;;;;24.96;77.52;99943.89;1677664;85;21014;-78
2022/07/03 04:43:44;;;;;;;5.33;2.25;;;;;;;25.06;77.57;99947.87;1686345;84;21112;-79
2022/07/03 04:46:11;;;;;;;5.55;1.95;;;;;;;25.16;77.93;99947.64;1686798;85;21534;-79
2022/07/03 04:48:38;;;;;;;3.05;1.40;;;;;;;25.22;79.56;99940.95;1676226;85;22192;-78
2022/07/03 04:51:09;;;;;;;2.72;1.67;;;;;;;25.34;81.50;99942.49;1674793;84;21434;-78
2022/07/03 04:53:35;;;;;;;2.05;1.57;;;;;;;25.39;82.13;99940.65;1682447;84;21003;-78
2022/07/03 04:56:04;;;;;;;7.22;1.87;;;;;;;25.47;79.26;99937.19;1678336;84;21092;-77
2022/07/03 04:58:31;;;;;;;6.42;1.92;;;;;;;25.57;77.09;99936.92;1675906;85;21092;-78
2022/07/03 05:00:57;;;;;;;4.67;1.52;;;;;;;25.66;74.82;99935.08;1674479;85;21151;-77
2022/07/03 05:03:24;;;;;;;2.67;1.75;;;;;;;25.77;72.50;99935.78;1633881;85;20921;-78
2022/07/03 05:05:52;;;;;;;5.15;1.77;;;;;;;25.83;72.19;99935.52;1687067;85;21507;-76
2022/07/03 05:08:23;;;;;;;5.08;1.70;;;;;;;25.93;71.41;99933.04;1686912;85;20966;-78
2022/07/03 05:10:52;;;;;;;8.28;1.75;;;;;;;25.99;71.00;99934.19;1685555;84;21488;-77
2022/07/03 05:13:22;;;;;;;4.17;1.60;;;;;;;26.08;70.72;99935.93;1656940;85;21812;-77
2022/07/03 05:15:49;;;;;;;6.25;2.25;;;;;;;26.23;69.95;99933.77;1686858;83;20953;-74
2022/07/03 05:18:16;;;;;;;3.83;1.42;;;;;;;26.28;70.51;99933.91;1676756;84;21483;-78
2022/07/03 05:20:44;;;;;;;3.47;1.57;;;;;;;26.35;67.85;99934.47;1668858;83;21573;-78
2022/07/03 05:23:11;;;;;;;5.00;1.27;;;;;;;26.35;67.62;99927.41;1674841;83;21593;-77
2022/07/03 05:25:40;;;;;;;7.03;1.85;;;;;;;26.40;67.17;99926.96;1678904;83;21109;-79
2022/07/03 05:28:09;;;;;;;2.58;1.72;;;;;;;26.48;67.55;99927.06;1677577;83;21487;-78
2022/07/03 05:30:36;;;;;;;5.95;1.87;;;;;;;26.59;67.00;99922.72;1679957;84;21077;-76
2022/07/03 05:33:03;;;;;;;3.42;1.62;;;;;;;26.71;67.14;99931.26;1679103;83;21087;-79
2022/07/03 05:35:30;;;;;;;8.13;1.52;;;;;;;26.81;67.10;99924.47;1678009;83;20965;-79
2022/07/03 05:37:57;;;;;;;4.92;1.35;;;;;;;26.89;64.21;99917.50;1663815;85;21216;-78
2022/07/03 05:40:26;;;;;;;5.75;1.50;;;;;;;26.95;64.54;99921.47;1676896;84;20984;-79
2022/07/03 05:42:53;;;;;;;2.65;1.52;;;;;;;27.04;64.75;99918.77;1682534;83;21013;-78
2022/07/03 05:45:21;;;;;;;2.10;1.52;;;;;;;27.14;64.70;99921.25;1682821;83;21022;-79
2022/07/03 05:47:47;;;;;;;1.50;1.35;;;;;;;27.21;64.87;99919.11;1671248;85;21054;-78
2022/07/03 05:50:15;;;;;;;6.33;1.40;;;;;;;27.33;65.53;99916.31;1676439;83;21490;-77
2022/07/03 05:52:43;;;;;;;3.22;1.52;;;;;;;27.40;64.73;99916.81;1651412;84;21000;-76
2022/07/03 05:55:13;;;;;;;5.45;2.08;;;;;;;27.51;61.91;99918.07;1642873;86;21045;-81
2022/07/03 05:57:39;;;;;;;4.12;1.40;;;;;;;27.62;62.87;99919.94;1680677;83;21013;-77
2022/07/03 06:00:09;;;;;;;2.83;1.90;;;;;;;27.56;64.62;99921.83;1672225;84;21100;-76
2022/07/03 06:02:38;;;;;;;7.20;2.27;;;;;;;27.62;64.62;99919.94;1622565;87;21164;-79
2022/07/03 06:05:05;;;;;;;3.70;1.67;;;;;;;27.67;60.58;99921.64;1668948;85;21045;-81
2022/07/03 06:07:36;;;;;;;3.17;1.50;;;;;;;27.69;58.92;99916.39;1644421;85;21037;-79
2022/07/03 06:10:03;;;;;;;5.42;2.22;;;;;;;27.74;57.22;99916.50;1673324;84;21556;-80
2022/07/03 06:12:29;;;;;;;7.83;1.98;;;;;;;27.78;55.33;99920.70;1675172;84;21037;-79
2022/07/03 06:14:58;;;;;;;7.37;1.67;;;;;;;27.78;55.32;99923.52;1642098;86;21169;-80
2022/07/03 06:17:24;;;;;;;4.10;1.42;;;;;;;27.79;56.06;99923.09;1634796;87;21075;-79
2022/07/03 06:19:52;;;;;;;5.87;1.62;;;;;;;27.80;56.96;99921.08;1682730;84;21081;-77
2022/07/03 06:22:20;;;;;;;3.58;2.12;;;;;;;27.78;56.13;99921.50;1685557;83;21668;-78
2022/07/03 06:24:51;;;;;;;3.22;1.87;;;;;;;27.79;55.77;99920.90;1687923;83;21054;-79
2022/07/03 06:27:21;;;;;;;4.47;2.58;;;;;;;27.76;57.64;99920.32;1699201;83;21563;-81
2022/07/03 06:29:51;;;;;;;8.70;2.15;;;;;;;27.74;57.32;99924.22;1684413;84;21021;-81
2022/07/03 06:32:21;;;;;;;4.30;2.33;;;;;;;27.83;56.98;99914.55;1688742;83;21033;-79
2022/07/03 06:34:50;;;;;;;4.60;1.90;;;;;;;27.93;58.33;99919.83;1686558;84;21056;-75
2022/07/03 06:37:19;;;;;;;4.25;2.50;;;;;;;27.98;58.00;99913.67;1689215;83;21047;-79
2022/07/03 06:39:46;;;;;;;4.37;2.08;;;;;;;28.05;57.71;99911.33;1684528;83;21235;-82
2022/07/03 06:42:12;;;;;;;2.75;2.12;;;;;;;28.10;58.31;99912.25;1679721;84;21564;-78
2022/07/03 06:44:39;;;;;;;4.25;2.25;;;;;;;28.15;57.70;99913.81;1684871;84;21019;-78
2022/07/03 06:47:05;;;;;;;5.30;2.10;;;;;;;28.19;57.11;99904.00;1688061;83;21532;-81
2022/07/03 06:49:33;;;;;;;4.75;2.25;;;;;;;28.25;55.29;99901.45;1689556;83;21027;-80
2022/07/03 06:52:00;;;;;;;2.87;2.40;;;;;;;28.36;58.33;99905.53;1669353;84;21135;-81
2022/07/03 06:54:28;;;;;;;1.62;1.50;;;;;;;28.44;58.40;99903.34;1676421;83;21064;-78
2022/07/03 06:56:54;;;;;;;6.17;2.50;;;;;;;28.63;58.04;99901.76;1685248;84;21087;-82
2022/07/03 06:59:21;;;;;;;5.83;1.80;;;;;;;28.68;56.39;99904.69;1654075;86;21068;-77
2022/07/03 07:01:50;;;;;;;4.42;1.92;;;;;;;28.75;57.68;99904.55;1644803;86;21056;-80
2022/07/03 07:04:19;;;;;;;5.15;2.47;;;;;;;28.84;57.75;99906.80;1645249;86;21577;-77
2022/07/03 07:06:48;;;;;;;4.08;2.75;;;;;;;28.91;57.67;99906.65;1637664;86;21028;-78
2022/07/03 07:09:15;;;;;;;8.45;2.72;;;;;;;29.03;59.03;99910.06;1661807;86;21075;-77
2022/07/03 07:11:42;;;;;;;3.72;2.35;;;;;;;29.16;57.93;99904.50;1688551;84;21075;-77
2022/07/03 07:14:09;;;;;;;3.85;2.35;;;;;;;29.31;58.51;99894.25;1690250;84;20957;-70
2022/07/03 07:16:36;;;;;;;11.40;2.50;;;;;;;29.38;57.70;99899.12;1674168;83;21052;-81
2022/07/03 07:19:02;;;;;;;6.17;2.60;;;;;;;29.48;56.36;99896.48;1674784;85;20942;-78
2022/07/03 07:21:29;;;;;;;5.22;2.65;;;;;;;29.58;57.28;99895.39;1678686;84;20970;-80
2022/07/03 07:23:55;;;;;;;4.97;2.72;;;;;;;29.61;56.66;99900.85;1678391;84;21018;-80
2022/07/03 07:26:22;;;;;;;5.70;2.65;;;;;;;29.67;56.43;99894.03;1679192;85;21006;-77
2022/07/03 07:28:48;;;;;;;3.05;2.58;;;;;;;29.71;57.16;99903.23;1646628;86;21071;-77
2022/07/03 07:31:15;;;;;;;5.55;2.40;;;;;;;29.73;57.60;99902.17;1641985;86;21464;-77
2022/07/03 07:33:41;;;;;;;6.90;2.58;;;;;;;29.73;58.26;99899.34;1678900;84;21014;-78
2022/07/03 07:36:12;;;;;;;4.60;2.95;;;;;;;29.79;58.44;99897.55;1644163;84;21539;-79
2022/07/03 07:38:39;;;;;;;3.52;2.47;;;;;;;29.82;56.90;99895.88;1676195;85;21061;-78
2022/07/03 07:41:05;;;;;;;3.33;2.55;;;;;;;29.80;55.72;99892.06;1652340;84;21086;-77
2022/07/03 07:43:32;;;;;;;4.33;2.85;;;;;;;29.80;56.09;99887.00;1619344;87;21076;-74
2022/07/03 07:45:59;;;;;;;7.45;3.10;;;;;;;29.80;56.60;99881.33;1651207;86;21073;-75
2022/07/03 07:48:27;;;;;;;4.33;2.92;;;;;;;29.83;58.59;99878.40;1619355;87;21105;-78
2022/07/03 07:50:53;;;;;;;2.65;2.40;;;;;;;29.88;59.12;99882.12;1650960;86;20986;-77
2022/07/03 07:53:21;;;;;;;4.50;2.85;;;;;;;29.97;57.57;99889.20;1650938;86;21916;-77
2022/07/03 07:55:48;;;;;;;7.00;3.25;;;;;;;30.12;57.73;99883.31;1618132;88;21045;-78
2022/07/03 07:58:16;;;;;;;6.15;2.92;;;;;;;30.29;58.82;99884.70;1649550;86;20997;-76
2022/07/03 08:05:35;;;;;;;5.25;2.70;;;;;;;30.37;59.63;99892.39;1650809;86;21068;-76
2022/07/03 08:06:00;;;;;;;9.45;3.05;;;;;;;30.48;57.32;99887.83;1649769;86;21594;-74
2022/07/03 08:31:01;;;;;;;4.05;3.02;;;;;;;30.77;52.83;99895.52;1628757;88;20913;-77
2022/07/03 08:33:28;;;;;;;9.98;3.12;;;;;;;30.71;52.27;99895.89;1628699;88;21470;-75
2022/07/03 08:35:55;;;;;;;5.20;2.90;;;;;;;30.79;56.01;99897.30;1623214;87;21882;-77
2022/07/03 08:38:32;;;;;;;5.97;3.00;;;;;;;30.94;55.97;99893.42;1628820;88;21041;-79
2022/07/03 08:41:00;;;;;;;4.95;3.05;;;;;;;31.04;54.47;99890.68;1629065;88;20965;-79
2022/07/03 08:43:30;;;;;;;6.17;3.22;;;;;;;31.13;54.11;99884.31;1628801;88;21485;-76
2022/07/03 08:45:59;;;;;;;4.28;2.90;;;;;;;31.20;54.43;99884.09;1628801;88;21088;-80
2022/07/03 08:48:26;;;;;;;6.90;3.05;;;;;;;31.25;54.95;99884.95;1601601;88;21523;-78
2022/07/03 08:50:57;;;;;;;8.10;3.15;;;;;;;31.31;52.86;99886.58;1601831;88;21061;-79
2022/07/03 08:53:25;;;;;;;11.15;4.03;;;;;;;31.35;52.41;99883.00;1628922;87;21061;-78
2022/07/03 08:56:00;;;;;;;3.62;2.87;;;;;;;31.26;52.49;99878.61;1627664;88;20990;-76
2022/07/03 08:58:27;;;;;;;8.78;3.33;;;;;;;31.34;52.51;99875.70;1628844;86;20950;-72
2022/07/03 09:00:53;;;;;;;7.28;2.98;;;;;;;31.38;52.61;99878.44;1628988;87;21541;-77
2022/07/03 09:03:20;;;;;;;4.72;3.52;;;;;;;31.35;54.33;99881.58;1628719;88;20898;-78
2022/07/03 09:05:48;;;;;;;3.42;2.95;;;;;;;31.35;54.65;99878.73;1580780;88;21045;-76
2022/07/03 09:08:16;;;;;;;6.58;3.33;;;;;;;31.37;57.25;99876.85;1628946;88;21077;-77
2022/07/03 09:10:50;;;;;;;5.60;3.55;;;;;;;31.45;57.06;99875.39;1601138;88;21037;-74
2022/07/03 09:13:18;;;;;;;;;;;;;;;31.53;54.80;99875.31;1604002;88;21853;-77
2022/07/03 09:19:47;;;;;;;5.37;3.27;;;;;;;31.71;55.93;99866.81;1628943;88;32717;-79
2022/07/03 09:22:26;;;;;;;5.17;3.75;;;;;;;31.83;52.58;99875.92;1628563;87;21070;-75
2022/07/03 09:25:10;;;;;;;4.72;3.87;;;;;;;31.95;53.55;99881.41;1572431;89;21037;-75
2022/07/03 09:27:39;;;;;;;4.85;3.52;;;;;;;32.03;55.72;99875.49;1624322;87;21529;-76
2022/07/03 09:30:13;;;;;;;7.95;3.08;;;;;;;32.12;51.11;99875.59;1640036;86;21620;-79
2022/07/03 09:32:46;;;;;;;4.42;3.83;;;;;;;32.18;52.83;99875.15;1652023;86;21041;-76
2022/07/03 09:35:24;;;;;;;6.92;3.58;;;;;;;32.29;53.70;99876.81;1652222;87;21007;-76
2022/07/03 09:38:04;;;;;;;10.05;3.50;;;;;;;32.43;50.96;99875.50;1652089;86;21089;-76
2022/07/03 09:40:55;;;;;;;5.80;2.92;;;;;;;32.49;50.28;99882.80;1652268;86;21854;-75
2022/07/03 09:51:25;;;;;;;7.50;2.98;;;;;;;32.59;50.96;99876.55;1607722;88;20997;-77
2022/07/03 09:54:02;;;;;;;3.90;2.87;;;;;;;32.48;48.69;99866.97;1602224;88;21083;-76
2022/07/03 09:56:37;;;;;;;3.95;2.70;;;;;;;32.33;50.86;99869.56;1651997;87;21239;-76
2022/07/03 09:59:17;;;;;;;7.20;2.50;;;;;;;32.21;50.49;99866.30;1652459;86;21536;-75
2022/07/03 10:01:49;;;;;;;31.35;21.57;;;;;;;32.12;50.09;99856.27;1651861;86;21021;-78
2022/07/03 10:04:20;;;;;;;15.32;6.78;;;;;;;31.92;51.81;99858.13;1652679;86;20986;-79
2022/07/03 10:06:53;;;;;;;6.95;3.60;;;;;;;31.79;50.77;99860.23;1652188;86;21526;-79
2022/07/03 10:09:31;;;;;;;4.53;3.42;;;;;;;31.67;48.93;99859.81;1652632;86;21508;-75
2022/07/03 10:12:02;;;;;;;9.43;3.33;;;;;;;31.58;50.44;99861.13;1652268;86;21456;-79
2022/07/03 10:14:33;;;;;;;3.22;2.77;;;;;;;31.50;51.07;99866.28;1652549;86;21026;-76
2022/07/03 10:17:01;;;;;;;6.10;3.02;;;;;;;31.46;49.77;99869.23;1652302;86;20914;-79
2022/07/03 10:19:30;;;;;;;7.37;2.95;;;;;;;31.42;48.08;99867.77;1651962;86;21081;-76
2022/07/03 10:22:02;;;;;;;4.90;2.98;;;;;;;31.33;48.01;99866.39;1652331;86;21474;-74
2022/07/03 10:24:30;;;;;;;3.23;2.87;;;;;;;31.25;47.14;99867.88;1650163;86;20906;-78
2022/07/03 10:26:58;;;;;;;6.28;2.87;;;;;;;31.26;48.35;99877.19;1651934;86;20997;-80
2022/07/03 10:29:26;;;;;;;7.53;2.85;;;;;;;31.22;50.26;99877.30;1652610;85;21001;-78
2022/07/03 10:31:53;;;;;;;6.97;3.55;;;;;;;31.17;49.16;99875.83;1650413;86;21031;-77
2022/07/03 10:34:25;;;;;;;5.55;2.87;;;;;;;31.08;48.79;99872.24;1649727;86;21016;-77
2022/07/03 10:37:03;;;;;;;4.15;3.40;;;;;;;31.05;48.84;99874.58;1659328;86;20992;-75
2022/07/03 10:44:45;;;;;;;13.95;8.00;;;;;;;31.02;48.47;99866.96;1659577;86;21434;-76
2022/07/03 10:45:16;;;;;;;7.67;3.10;;;;;;;30.88;50.09;99863.16;1659554;86;21002;-77
2022/07/03 10:47:49;;;;;;;6.62;3.72;;;;;;;30.82;53.29;99860.88;1649874;87;21139;-76
2022/07/03 10:50:18;;;;;;;10.30;3.20;;;;;;;30.73;53.22;99862.13;1659335;86;21017;-75
2022/07/03 10:52:45;;;;;;;7.37;2.90;;;;;;;30.69;54.33;99860.03;1629522;86;21021;-79
2022/07/03 10:55:14;;;;;;;7.60;3.52;;;;;;;30.66;56.08;99861.72;1649973;86;20957;-76
2022/07/03 10:57:43;;;;;;;6.35;2.62;;;;;;;30.61;54.97;99858.82;1650008;86;21057;-78
2022/07/03 11:00:18;;;;;;;6.75;3.10;;;;;;;30.57;53.90;99860.95;1649891;86;21230;-77
2022/07/03 11:02:50;;;;;;;5.22;3.52;;;;;;;30.49;53.09;99854.70;1649971;87;20997;-77
2022/07/03 11:05:22;;;;;;;5.28;3.27;;;;;;;30.46;56.66;99859.06;1649827;87;21017;-76
2022/07/03 11:07:57;;;;;;;8.47;3.03;;;;;;;30.40;56.10;99850.29;1659568;86;21005;-75
2022/07/03 11:10:29;;;;;;;8.45;3.30;;;;;;;30.36;58.63;99849.00;1649912;86;21009;-76
2022/07/03 11:13:05;;;;;;;3.55;2.60;;;;;;;30.29;56.61;99844.94;1659140;86;21051;-74
2022/07/03 11:15:45;;;;;;;5.47;3.20;;;;;;;30.25;57.25;99847.07;1649886;86;20913;-76
2022/07/03 11:18:34;;;;;;;5.95;2.92;;;;;;;30.19;57.10;99846.00;1650207;86;21049;-77
2022/07/03 11:21:15;;;;;;;5.95;4.10;;;;;;;30.12;58.57;99839.91;1649770;86;21045;-74
2022/07/03 11:24:16;;;;;;;14.53;10.17;;;;;;;30.08;59.81;99838.58;1659402;85;21057;-77
2022/07/03 11:26:46;;;;;;;12.82;6.10;;;;;;;30.05;61.68;99836.64;1658936;86;20993;-77
2022/07/03 11:29:27;;;;;;;20.23;9.90;;;;;;;30.07;61.48;99828.48;1659293;86;21024;-78
2022/07/03 11:31:57;;;;;;;23.15;16.00;;;;;;;30.05;62.39;99828.13;1649756;86;21605;-77
2022/07/03 11:34:23;;;;;;;12.58;8.15;;;;;;;30.00;63.28;99818.73;1620028;88;21062;-77
2022/07/03 11:36:50;;;;;;;277.25;169.85;;;;;;;29.97;62.62;99825.31;1620149;88;21030;-77
2022/07/03 11:39:21;;;;;;;192.68;120.55;;;;;;;29.94;61.70;99817.70;1620160;87;21977;-75
2022/07/03 11:41:48;;;;;;;32.95;22.15;;;;;;;29.92;61.76;99824.44;1608809;89;21245;-77
2022/07/03 11:44:17;;;;;;;17.75;11.08;;;;;;;29.89;60.54;99826.11;1608919;89;21037;-79
2022/07/03 11:46:50;;;;;;;8.53;5.47;;;;;;;29.80;65.56;99818.87;1620324;88;21037;-78
2022/07/03 11:49:22;;;;;;;7.78;4.87;;;;;;;29.70;67.26;99816.51;1608792;89;20919;-77
2022/07/03 11:52:00;;;;;;;8.70;5.28;;;;;;;29.52;68.99;99812.06;1620315;88;21803;-78
2022/07/03 11:54:32;;;;;;;9.80;5.45;;;;;;;29.27;70.57;99812.89;1608600;89;20984;-77
2022/07/03 11:56:59;;;;;;;10.20;5.75;;;;;;;29.17;71.87;99809.70;1609013;89;21126;-77
2022/07/03 11:59:32;;;;;;;15.83;4.70;;;;;;;29.16;77.44;99820.23;1616805;88;20950;-77
2022/07/03 12:02:03;;;;;;;14.35;5.22;;;;;;;29.15;82.71;99822.91;1620488;88;21088;-77
2022/07/03 12:04:30;;;;;;;10.18;4.65;;;;;;;29.03;87.90;99820.76;1620018;88;21265;-76
2022/07/03 12:06:58;;;;;;;11.50;4.78;;;;;;;28.81;88.67;99822.65;1579709;88;20958;-75
2022/07/03 12:09:33;;;;;;;8.83;4.83;;;;;;;28.71;91.34;99818.02;1620015;88;21024;-75
2022/07/03 12:12:10;;;;;;;6.78;4.08;;;;;;;28.62;95.04;99820.83;1617173;88;21576;-77
2022/07/03 12:14:45;;;;;;;6.50;4.12;;;;;;;28.63;96.84;99823.84;1620029;88;21447;-75
2022/07/03 12:17:20;;;;;;;5.87;3.90;;;;;;;28.60;98.96;99816.83;1619952;88;21128;-75
2022/07/03 12:20:00;;;;;;;11.28;4.47;;;;;;;28.62;100.00;99818.00;1619306;88;20972;-76
2022/07/03 12:22:33;;;;;;;6.30;4.70;;;;;;;28.63;100.00;99815.94;1620225;88;21553;-74
2022/07/03 12:25:12;;;;;;;8.50;4.42;;;;;;;28.61;100.00;99816.39;1616359;88;21021;-76
2022/07/03 12:27:40;;;;;;;;;;;;;;;28.54;99.20;99825.06;1622488;88;21445;-77
2022/07/03 12:30:10;;;;;;;10.32;5.05;;;;;;;28.46;100.00;99821.56;1619997;88;21154;-76
2022/07/03 12:32:42;;;;;;;7.28;4.80;;;;;;;28.41;100.00;99827.13;1652052;86;20999;-73